createdAt,value
2019-04-03T00:00:24.383Z,20.40
2019-04-03T00:02:29.577Z,20.40
2019-04-03T00:04:36.855Z,20.40
2019-04-03T00:06:41.693Z,20.40
2019-04-03T00:08:46.527Z,20.40
2019-04-03T00:10:51.367Z,20.40
2019-04-03T00:12:56.263Z,20.40
2019-04-03T00:15:01.007Z,20.30
2019-04-03T00:17:06.239Z,20.30
2019-04-03T00:19:12.668Z,20.40
2019-04-03T00:21:19.167Z,20.40
2019-04-03T00:23:23.867Z,20.30
2019-04-03T00:25:28.760Z,20.30
2019-04-03T00:27:33.874Z,20.40
2019-04-03T00:29:39.867Z,20.30
2019-04-03T00:31:44.708Z,20.30
2019-04-03T00:33:49.520Z,20.30
2019-04-03T00:35:54.474Z,20.30
2019-04-03T00:37:59.706Z,20.30
2019-04-03T00:40:04.928Z,20.30
2019-04-03T00:42:09.773Z,20.30
2019-04-03T00:44:14.863Z,20.30
2019-04-03T00:46:19.701Z,20.30
2019-04-03T00:48:25.755Z,20.30
2019-04-03T00:50:31.062Z,20.30
2019-04-03T00:52:36.010Z,20.30
2019-04-03T00:54:40.931Z,20.30
2019-04-03T00:56:45.767Z,20.30
2019-04-03T00:58:51.575Z,20.30
2019-04-03T01:00:56.861Z,20.30
2019-04-03T01:03:01.653Z,20.30
2019-04-03T01:05:07.002Z,20.30
2019-04-03T01:07:12.435Z,20.30
2019-04-03T01:09:18.376Z,20.30
2019-04-03T01:11:23.823Z,20.30
2019-04-03T01:13:30.985Z,20.20
2019-04-03T01:15:35.244Z,20.20
2019-04-03T01:17:40.627Z,20.20
2019-04-03T01:19:45.614Z,20.20
2019-04-03T01:21:50.617Z,20.20
2019-04-03T01:23:55.454Z,20.20
2019-04-03T01:26:00.431Z,20.20
2019-04-03T01:28:05.365Z,20.20
2019-04-03T01:30:10.404Z,20.20
2019-04-03T01:32:16.000Z,20.20
2019-04-03T01:34:21.027Z,20.20
2019-04-03T01:36:25.874Z,20.20
2019-04-03T01:38:30.854Z,20.20
2019-04-03T01:40:35.686Z,20.20
2019-04-03T01:42:40.713Z,20.20
2019-04-03T01:44:45.539Z,20.20
2019-04-03T01:46:50.346Z,20.20
2019-04-03T01:48:55.248Z,20.20
2019-04-03T01:51:00.332Z,20.20
2019-04-03T01:53:05.650Z,20.20
2019-04-03T01:55:11.244Z,20.20
2019-04-03T01:57:16.431Z,20.20
2019-04-03T01:59:21.312Z,20.20
2019-04-03T02:01:26.588Z,20.10
2019-04-03T02:03:31.477Z,20.10
2019-04-03T02:07:50.247Z,20.20
2019-04-03T02:09:55.140Z,20.10
2019-04-03T02:12:00.224Z,20.20
2019-04-03T02:14:05.311Z,20.20
2019-04-03T02:16:10.139Z,20.20
2019-04-03T02:18:15.560Z,20.20
2019-04-03T02:20:20.351Z,20.20
2019-04-03T02:22:25.194Z,20.20
2019-04-03T02:24:31.853Z,20.20
2019-04-03T02:26:36.466Z,20.30
2019-04-03T02:28:41.274Z,20.30
2019-04-03T02:30:47.176Z,20.30
2019-04-03T02:32:55.101Z,20.30
2019-04-03T02:34:58.703Z,20.40
2019-04-03T02:37:03.519Z,20.40
2019-04-03T02:39:08.387Z,20.50
2019-04-03T02:41:13.283Z,20.50
2019-04-03T02:43:18.238Z,20.50
2019-04-03T02:45:25.028Z,20.50
2019-04-03T02:47:32.419Z,20.50
2019-04-03T02:49:36.352Z,20.60
2019-04-03T02:51:41.421Z,20.60
2019-04-03T02:53:47.686Z,20.60
2019-04-03T02:55:52.513Z,20.60
2019-04-03T02:57:57.418Z,20.70
2019-04-03T03:00:02.331Z,20.70
2019-04-03T03:02:07.305Z,20.70
2019-04-03T03:04:12.126Z,20.70
2019-04-03T03:06:17.368Z,20.60
2019-04-03T03:08:23.317Z,20.70
2019-04-03T03:10:31.240Z,20.70
2019-04-03T03:12:34.855Z,20.60
2019-04-03T03:14:40.384Z,20.60
2019-04-03T03:16:49.238Z,20.60
2019-04-03T03:18:52.106Z,20.70
2019-04-03T03:20:57.452Z,20.60
2019-04-03T03:23:03.296Z,20.60
2019-04-03T03:25:08.208Z,20.70
2019-04-03T03:27:13.273Z,20.70
2019-04-03T03:29:23.855Z,20.70
2019-04-03T03:31:56.393Z,20.70
2019-04-03T03:33:37.877Z,20.70
2019-04-03T03:35:44.906Z,20.80
2019-04-03T03:37:46.629Z,20.80
2019-04-03T03:39:52.594Z,20.80
2019-04-03T03:41:58.613Z,20.80
2019-04-03T03:44:04.223Z,20.80
2019-04-03T03:46:09.125Z,20.90
2019-04-03T03:48:14.126Z,20.90
2019-04-03T03:50:25.195Z,20.90
2019-04-03T03:52:31.283Z,20.90
2019-04-03T03:54:36.101Z,20.90
2019-04-03T03:56:40.895Z,21.00
2019-04-03T03:58:46.612Z,21.00
2019-04-03T04:00:52.630Z,21.00
2019-04-03T04:02:58.052Z,21.00
2019-04-03T04:05:02.867Z,21.00
2019-04-03T04:07:08.058Z,21.10
2019-04-03T04:09:15.577Z,21.00
2019-04-03T04:11:19.507Z,21.10
2019-04-03T04:13:24.534Z,21.10
2019-04-03T04:15:31.055Z,21.10
2019-04-03T04:17:36.154Z,21.10
2019-04-03T04:19:41.066Z,21.20
2019-04-03T04:21:45.993Z,21.20
2019-04-03T04:23:50.989Z,21.20
2019-04-03T04:25:55.987Z,21.20
2019-04-03T04:28:01.248Z,21.20
2019-04-03T04:30:06.443Z,21.30
2019-04-03T04:32:12.716Z,21.20
2019-04-03T04:34:18.827Z,21.30
2019-04-03T04:36:24.913Z,21.30
2019-04-03T04:38:29.711Z,21.30
2019-04-03T04:40:35.141Z,21.30
2019-04-03T04:42:40.001Z,21.30
2019-04-03T04:44:44.850Z,21.30
2019-04-03T04:46:49.707Z,21.30
2019-04-03T04:48:54.657Z,21.30
2019-04-03T04:50:59.495Z,21.40
2019-04-03T04:53:04.574Z,21.40
2019-04-03T04:55:09.711Z,21.40
2019-04-03T04:57:14.852Z,21.40
2019-04-03T04:59:19.758Z,21.40
2019-04-03T05:01:24.471Z,21.40
2019-04-03T05:03:29.276Z,21.40
2019-04-03T05:05:34.079Z,21.40
2019-04-03T05:07:39.014Z,21.50
2019-04-03T05:09:44.856Z,21.50
2019-04-03T05:11:49.637Z,21.50
2019-04-03T05:13:54.766Z,21.50
2019-04-03T05:15:59.671Z,21.50
2019-04-03T05:18:04.540Z,21.50
2019-04-03T05:20:09.683Z,21.60
2019-04-03T05:22:14.556Z,21.60
2019-04-03T05:24:19.240Z,21.60
2019-04-03T05:26:24.046Z,21.60
2019-04-03T05:28:28.832Z,21.60
2019-04-03T05:30:36.498Z,21.60
2019-04-03T05:32:41.127Z,21.60
2019-04-03T05:34:46.399Z,21.60
2019-04-03T05:36:51.236Z,21.60
2019-04-03T05:38:56.235Z,21.60
2019-04-03T05:41:01.589Z,21.70
2019-04-03T05:43:06.342Z,21.70
2019-04-03T05:45:11.170Z,21.70
2019-04-03T05:47:16.091Z,21.70
2019-04-03T05:49:20.984Z,21.70
2019-04-03T05:51:25.910Z,21.70
2019-04-03T05:53:30.673Z,21.70
2019-04-03T05:55:35.903Z,21.70
2019-04-03T05:57:41.023Z,21.80
2019-04-03T05:59:58.719Z,21.80
2019-04-03T06:01:53.314Z,21.80
2019-04-03T06:03:58.822Z,21.80
2019-04-03T06:06:04.005Z,21.80
2019-04-03T06:08:09.411Z,21.80
2019-04-03T06:10:15.304Z,21.80
2019-04-03T06:12:20.092Z,21.80
2019-04-03T06:14:24.948Z,21.80
2019-04-03T06:16:29.954Z,21.80
2019-04-03T06:18:36.096Z,21.80
2019-04-03T06:20:42.589Z,21.80
2019-04-03T06:22:47.913Z,21.80
2019-04-03T06:24:56.374Z,21.80
2019-04-03T06:27:00.632Z,21.80
2019-04-03T06:29:07.277Z,21.80
2019-04-03T06:31:11.763Z,21.80
2019-04-03T06:33:16.656Z,21.80
2019-04-03T06:35:21.628Z,21.80
2019-04-03T06:37:26.532Z,21.80
2019-04-03T06:39:31.903Z,21.80
2019-04-03T06:41:37.271Z,21.80
2019-04-03T06:43:42.163Z,21.80
2019-04-03T06:45:46.953Z,21.70
2019-04-03T06:47:52.017Z,21.70
2019-04-03T06:49:56.782Z,21.70
2019-04-03T06:52:03.629Z,21.70
2019-04-03T06:54:08.476Z,21.70
2019-04-03T06:56:14.330Z,21.70
2019-04-03T06:58:19.477Z,21.70
2019-04-03T07:00:24.578Z,21.60
2019-04-03T07:02:31.554Z,21.60
2019-04-03T07:04:37.502Z,21.60
2019-04-03T07:06:42.815Z,21.60
2019-04-03T07:08:49.205Z,21.60
2019-04-03T07:10:55.535Z,21.60
2019-04-03T07:13:00.679Z,21.60
2019-04-03T07:15:05.943Z,21.60
2019-04-03T07:17:11.061Z,21.60
2019-04-03T07:19:16.991Z,21.60
2019-04-03T07:21:22.727Z,21.60
2019-04-03T07:23:29.953Z,21.60
2019-04-03T07:25:35.094Z,21.60
2019-04-03T07:27:41.788Z,21.60
2019-04-03T07:29:46.830Z,21.60
2019-04-03T07:31:54.848Z,21.50
2019-04-03T07:34:02.989Z,21.50
2019-04-03T07:36:10.794Z,21.50
2019-04-03T07:38:15.217Z,21.60
2019-04-03T07:40:20.954Z,21.50
2019-04-03T07:42:26.696Z,21.50
2019-04-03T07:44:32.052Z,21.50
2019-04-03T07:46:37.314Z,21.50
2019-04-03T07:48:42.543Z,21.50
2019-04-03T07:50:47.585Z,21.50
2019-04-03T07:52:53.016Z,21.50
2019-04-03T07:54:58.249Z,21.50
2019-04-03T07:57:04.259Z,21.50
2019-04-03T07:59:09.476Z,21.50
2019-04-03T08:01:14.993Z,21.50
2019-04-03T08:03:21.679Z,21.50
2019-04-03T08:05:30.364Z,21.50
2019-04-03T08:07:34.330Z,21.50
2019-04-03T08:09:39.818Z,21.50
2019-04-03T08:11:56.612Z,21.50
2019-04-03T08:14:02.270Z,21.50
2019-04-03T08:16:07.861Z,21.50
2019-04-03T08:18:13.043Z,21.50
2019-04-03T08:20:20.073Z,21.50
2019-04-03T08:22:25.735Z,21.50
2019-04-03T08:24:31.287Z,21.50
2019-04-03T08:26:37.489Z,21.50
2019-04-03T08:28:44.083Z,21.50
2019-04-03T08:30:50.336Z,21.50
2019-04-03T08:32:58.122Z,21.50
2019-04-03T08:35:04.507Z,21.50
2019-04-03T08:37:10.826Z,21.50
2019-04-03T08:39:17.958Z,21.60
2019-04-03T08:41:24.151Z,21.60
2019-04-03T08:43:32.630Z,21.50
2019-04-03T08:45:38.522Z,21.60
2019-04-03T08:47:45.913Z,21.60
2019-04-03T08:49:50.798Z,21.60
2019-04-03T08:51:56.169Z,21.60
2019-04-03T08:54:03.331Z,21.60
2019-04-03T08:56:08.985Z,21.60
2019-04-03T08:58:14.334Z,21.60
2019-04-03T09:00:20.706Z,21.60
2019-04-03T09:02:25.551Z,21.60
2019-04-03T09:04:36.710Z,21.60
2019-04-03T09:06:42.907Z,21.60
2019-04-03T09:08:47.959Z,21.60
2019-04-03T09:10:53.654Z,21.70
2019-04-03T09:12:59.835Z,21.70
2019-04-03T09:15:08.170Z,21.60
2019-04-03T09:17:13.611Z,21.70
2019-04-03T09:19:19.821Z,21.70
2019-04-03T09:21:25.108Z,21.70
2019-04-03T09:23:30.833Z,21.70
2019-04-03T09:25:36.252Z,21.70
2019-04-03T09:27:41.356Z,21.70
2019-04-03T09:29:46.917Z,21.70
2019-04-03T09:31:54.155Z,21.70
2019-04-03T09:33:58.973Z,21.70
2019-04-03T09:36:04.602Z,21.70
2019-04-03T09:38:10.326Z,21.70
2019-04-03T09:40:17.284Z,21.70
2019-04-03T09:42:25.218Z,21.70
2019-04-03T09:44:30.959Z,21.70
2019-04-03T09:46:37.694Z,21.70
2019-04-03T09:48:43.631Z,21.70
2019-04-03T09:50:48.774Z,21.70
2019-04-03T09:52:55.306Z,21.70
2019-04-03T09:55:01.020Z,21.80
2019-04-03T09:57:05.948Z,21.80
2019-04-03T09:59:10.917Z,21.80
2019-04-03T10:01:18.409Z,21.80
2019-04-03T10:03:23.433Z,21.80
2019-04-03T10:05:29.043Z,21.80
2019-04-03T10:07:36.316Z,21.80
2019-04-03T10:09:42.807Z,21.80
2019-04-03T10:11:49.073Z,21.80
2019-04-03T10:13:54.925Z,21.80
2019-04-03T10:16:03.237Z,21.80
2019-04-03T10:18:09.541Z,21.80
2019-04-03T10:20:16.488Z,21.80
2019-04-03T10:22:21.900Z,21.80
2019-04-03T10:24:30.422Z,21.90
2019-04-03T10:26:34.123Z,21.90
2019-04-03T10:28:42.009Z,21.90
2019-04-03T10:30:45.323Z,21.90
2019-04-03T10:32:50.337Z,21.90
2019-04-03T10:34:57.417Z,21.90
2019-04-03T10:37:01.874Z,21.90
2019-04-03T10:39:08.514Z,21.90
2019-04-03T10:41:13.314Z,22.00
2019-04-03T10:43:18.091Z,22.00
2019-04-03T10:45:22.899Z,22.00
2019-04-03T10:47:40.313Z,22.00
2019-04-03T10:49:34.295Z,22.00
2019-04-03T10:51:40.593Z,22.00
2019-04-03T10:53:45.562Z,22.10
2019-04-03T10:55:50.409Z,22.10
2019-04-03T10:57:55.251Z,22.10
2019-04-03T11:00:00.155Z,22.10
2019-04-03T11:02:05.417Z,22.10
2019-04-03T11:04:10.248Z,22.10
2019-04-03T11:06:15.158Z,22.10
2019-04-03T11:08:20.084Z,22.10
2019-04-03T11:10:25.310Z,22.10
2019-04-03T11:12:31.917Z,22.10
2019-04-03T11:14:39.001Z,22.10
2019-04-03T11:16:46.019Z,22.20
2019-04-03T11:18:58.482Z,22.20
2019-04-03T11:20:56.771Z,22.20
2019-04-03T11:23:06.668Z,22.20
2019-04-03T11:25:08.374Z,22.20
2019-04-03T11:27:14.176Z,22.20
2019-04-03T11:29:19.241Z,22.20
2019-04-03T11:31:27.634Z,22.20
2019-04-03T11:33:31.116Z,22.30
2019-04-03T11:35:36.134Z,22.30
2019-04-03T11:37:40.988Z,22.30
2019-04-03T11:39:46.315Z,22.30
2019-04-03T11:41:54.527Z,22.30
2019-04-03T11:43:58.535Z,22.30
2019-04-03T11:46:03.267Z,22.30
2019-04-03T11:48:08.206Z,22.30
2019-04-03T11:50:13.352Z,22.40
2019-04-03T11:52:19.876Z,22.40
2019-04-03T11:54:25.096Z,22.40
2019-04-03T11:56:29.917Z,22.40
2019-04-03T11:58:34.777Z,22.40
2019-04-03T12:00:45.471Z,22.40
2019-04-03T12:02:50.457Z,22.40
2019-04-03T12:04:55.438Z,22.40
2019-04-03T12:07:00.250Z,22.50
2019-04-03T12:09:07.723Z,22.50
2019-04-03T12:11:13.013Z,22.50
2019-04-03T12:13:20.989Z,22.50
2019-04-03T12:15:25.872Z,22.50
2019-04-03T12:17:31.053Z,22.50
2019-04-03T12:19:37.137Z,22.50
2019-04-03T12:21:42.875Z,22.50
2019-04-03T12:23:47.555Z,22.50
2019-04-03T12:25:52.450Z,22.60
2019-04-03T12:27:57.210Z,22.60
2019-04-03T12:30:02.215Z,22.60
2019-04-03T12:32:09.332Z,22.60
2019-04-03T12:34:14.623Z,22.60
2019-04-03T12:36:19.530Z,22.60
2019-04-03T12:38:24.343Z,22.60
2019-04-03T12:40:33.649Z,22.60
2019-04-03T12:42:39.018Z,22.60
2019-04-03T12:44:44.816Z,22.60
2019-04-03T12:46:50.049Z,22.70
2019-04-03T12:48:55.327Z,22.70
2019-04-03T12:51:00.378Z,22.70
2019-04-03T12:53:05.158Z,22.70
2019-04-03T12:55:10.003Z,22.70
2019-04-03T12:57:14.924Z,22.70
2019-04-03T12:59:20.932Z,22.70
2019-04-03T13:01:25.866Z,22.70
2019-04-03T13:03:30.872Z,22.70
2019-04-03T13:05:37.860Z,22.70
2019-04-03T13:07:44.060Z,22.80
2019-04-03T13:09:49.026Z,22.80
2019-04-03T13:11:54.210Z,22.80
2019-04-03T13:13:59.913Z,22.80
2019-04-03T13:16:07.371Z,22.80
2019-04-03T13:18:12.511Z,22.80
2019-04-03T13:20:17.765Z,22.80
2019-04-03T13:22:25.426Z,22.80
2019-04-03T13:24:30.483Z,22.80
2019-04-03T13:26:35.930Z,22.80
2019-04-03T13:28:41.471Z,22.80
2019-04-03T13:30:46.846Z,22.80
2019-04-03T13:32:58.324Z,22.90
2019-04-03T13:34:58.251Z,22.90
2019-04-03T13:37:03.179Z,22.90
2019-04-03T13:39:08.713Z,22.90
2019-04-03T13:41:13.609Z,22.90
2019-04-03T13:43:21.010Z,22.90
2019-04-03T13:45:24.936Z,22.90
2019-04-03T13:47:29.852Z,22.90
2019-04-03T13:49:34.890Z,22.90
2019-04-03T13:51:39.690Z,22.90
2019-04-03T13:53:44.441Z,22.90
2019-04-03T13:55:49.270Z,22.90
2019-04-03T13:57:54.112Z,22.90
2019-04-03T14:00:01.679Z,22.90
2019-04-03T14:02:05.464Z,22.90
2019-04-03T14:04:10.627Z,22.90
2019-04-03T14:06:16.691Z,22.90
2019-04-03T14:08:21.482Z,22.90
2019-04-03T14:10:26.934Z,22.90
2019-04-03T14:12:33.129Z,22.90
2019-04-03T14:14:38.466Z,22.90
2019-04-03T14:16:43.496Z,22.90
2019-04-03T14:18:49.898Z,22.90
2019-04-03T14:20:57.105Z,22.90
2019-04-03T14:23:03.894Z,22.90
2019-04-03T14:25:19.358Z,22.90
2019-04-03T14:27:21.967Z,22.90
2019-04-03T14:29:21.851Z,22.90
2019-04-03T14:31:34.361Z,22.90
2019-04-03T14:33:43.274Z,22.90
2019-04-03T14:35:50.217Z,22.90
2019-04-03T14:37:49.976Z,22.90
2019-04-03T14:39:56.857Z,22.90
2019-04-03T14:42:03.044Z,22.90
2019-04-03T14:44:09.782Z,22.90
2019-04-03T14:46:21.196Z,22.90
2019-04-03T14:48:31.432Z,22.90
2019-04-03T14:50:39.063Z,22.90
2019-04-03T14:52:48.766Z,22.80
2019-04-03T14:54:55.629Z,22.80
2019-04-03T14:57:09.992Z,22.80
2019-04-03T14:59:09.036Z,22.80
2019-04-03T15:01:19.423Z,22.80
2019-04-03T15:03:22.863Z,22.80
2019-04-03T15:05:28.080Z,22.80
2019-04-03T15:07:34.163Z,22.80
2019-04-03T15:09:39.922Z,22.80
2019-04-03T15:11:46.061Z,22.80
2019-04-03T15:13:52.212Z,22.80
2019-04-03T15:16:00.382Z,22.80
2019-04-03T15:18:09.310Z,22.70
2019-04-03T15:20:15.296Z,22.70
2019-04-03T15:22:21.314Z,22.70
2019-04-03T15:24:27.058Z,22.70
2019-04-03T15:26:37.283Z,22.70
2019-04-03T15:28:43.421Z,22.70
2019-04-03T15:30:49.467Z,22.70
2019-04-03T15:32:55.892Z,22.70
2019-04-03T15:35:06.042Z,22.70
2019-04-03T15:37:13.915Z,22.70
2019-04-03T15:39:18.340Z,22.70
2019-04-03T15:41:23.076Z,22.70
2019-04-03T15:43:27.968Z,22.70
2019-04-03T15:45:34.243Z,22.70
2019-04-03T15:47:45.030Z,22.70
2019-04-03T15:49:47.842Z,22.70
2019-04-03T15:51:54.747Z,22.70
2019-04-03T15:54:03.783Z,22.60
2019-04-03T15:56:11.781Z,22.60
2019-04-03T15:58:17.489Z,22.60
2019-04-03T16:00:23.593Z,22.60
2019-04-03T16:02:34.510Z,22.60
2019-04-03T16:04:39.471Z,22.50
2019-04-03T16:06:47.185Z,22.50
2019-04-03T16:08:56.881Z,22.50
2019-04-03T16:11:07.427Z,22.50
2019-04-03T16:13:21.350Z,22.50
2019-04-03T16:15:26.861Z,22.40
2019-04-03T16:17:37.913Z,22.40
2019-04-03T16:19:45.090Z,22.40
2019-04-03T16:21:57.347Z,22.40
2019-04-03T16:24:12.548Z,22.30
2019-04-03T16:26:29.616Z,22.30
2019-04-03T16:28:37.504Z,22.30
2019-04-03T16:30:42.417Z,22.30
2019-04-03T16:32:48.336Z,22.20
2019-04-03T16:35:06.045Z,22.20
2019-04-03T16:37:16.798Z,22.20
2019-04-03T16:39:24.731Z,22.10
2019-04-03T16:41:31.458Z,22.10
2019-04-03T16:43:37.955Z,22.10
2019-04-03T16:45:45.091Z,22.10
2019-04-03T16:47:51.745Z,22.10
2019-04-03T16:50:00.655Z,22.00
2019-04-03T16:52:13.795Z,22.00
2019-04-03T16:54:28.661Z,22.00
2019-04-03T16:56:48.661Z,21.90
2019-04-03T16:59:07.412Z,21.90
2019-04-03T17:01:19.527Z,21.90
2019-04-03T17:03:37.698Z,21.90
2019-04-03T17:05:53.139Z,21.80
2019-04-03T17:08:06.473Z,21.80
2019-04-03T17:10:24.951Z,21.80
2019-04-03T17:12:38.358Z,21.80
2019-04-03T17:14:45.671Z,21.80
2019-04-03T17:16:55.008Z,21.70
2019-04-03T17:19:06.300Z,21.70
2019-04-03T17:21:22.446Z,21.70
2019-04-03T17:23:32.626Z,21.70
2019-04-03T17:25:52.410Z,21.70
2019-04-03T17:28:10.200Z,21.70
2019-04-03T17:30:32.193Z,21.60
2019-04-03T17:32:44.593Z,21.60
2019-04-03T17:34:51.315Z,21.60
2019-04-03T17:36:59.525Z,21.60
2019-04-03T17:40:42.576Z,21.60
2019-04-03T17:42:58.507Z,21.50
2019-04-03T17:45:03.701Z,21.50
2019-04-03T17:47:08.491Z,21.50
2019-04-03T17:49:19.353Z,21.50
2019-04-03T17:51:29.238Z,21.50
2019-04-03T17:53:43.186Z,21.50
2019-04-03T17:55:55.623Z,21.50
2019-04-03T17:58:29.078Z,21.40
2019-04-03T18:00:35.641Z,21.40
2019-04-03T18:02:40.591Z,21.40
2019-04-03T18:04:45.508Z,21.40
2019-04-03T18:06:50.719Z,21.40
2019-04-03T18:08:56.140Z,21.40
2019-04-03T18:11:01.114Z,21.40
2019-04-03T18:13:05.879Z,21.30
2019-04-03T18:15:10.743Z,21.30
2019-04-03T18:17:18.009Z,21.30
2019-04-03T18:19:37.366Z,21.30
2019-04-03T18:21:44.115Z,21.30
2019-04-03T18:23:57.805Z,21.30
2019-04-03T18:26:09.785Z,21.30
2019-04-03T18:28:23.652Z,21.30
2019-04-03T18:30:31.571Z,21.30
2019-04-03T18:32:36.351Z,21.40
2019-04-03T18:34:41.276Z,21.40
2019-04-03T18:36:46.133Z,21.40
2019-04-03T18:38:51.065Z,21.40
2019-04-03T18:40:55.816Z,21.40
2019-04-03T18:43:00.638Z,21.40
2019-04-03T18:45:05.685Z,21.40
2019-04-03T18:47:11.621Z,21.30
2019-04-03T18:49:17.898Z,21.30
2019-04-03T18:51:22.933Z,21.30
2019-04-03T18:53:27.921Z,21.30
2019-04-03T18:55:34.808Z,21.30
2019-04-03T18:57:39.520Z,21.30
2019-04-03T18:59:44.330Z,21.20
2019-04-03T19:01:49.069Z,21.20
2019-04-03T19:03:54.032Z,21.20
2019-04-03T19:05:59.977Z,21.20
2019-04-03T19:08:13.047Z,21.20
2019-04-03T19:10:11.545Z,21.20
2019-04-03T19:12:16.540Z,21.20
2019-04-03T19:14:26.916Z,21.20
2019-04-03T19:16:29.816Z,21.10
2019-04-03T19:18:35.655Z,21.20
2019-04-03T19:20:40.539Z,21.10
2019-04-03T19:22:45.643Z,21.10
2019-04-03T19:24:50.539Z,21.10
2019-04-03T19:26:55.481Z,21.10
2019-04-03T19:29:00.322Z,21.10
2019-04-03T19:31:05.119Z,21.10
2019-04-03T19:33:10.071Z,21.10
2019-04-03T19:35:15.040Z,21.10
2019-04-03T19:37:19.764Z,21.10
2019-04-03T19:39:25.993Z,21.10
2019-04-03T19:41:31.110Z,21.10
2019-04-03T19:43:35.953Z,21.10
2019-04-03T19:45:40.880Z,21.10
2019-04-03T19:47:45.697Z,21.10
2019-04-03T19:49:50.716Z,21.00
2019-04-03T19:51:55.627Z,21.00
2019-04-03T19:54:00.505Z,21.00
2019-04-03T19:56:05.522Z,21.00
2019-04-03T19:58:10.540Z,21.00
2019-04-03T20:00:16.479Z,20.90
2019-04-03T20:02:21.579Z,21.00
2019-04-03T20:04:26.432Z,20.90
2019-04-03T20:06:31.483Z,20.90
2019-04-03T20:08:36.386Z,20.90
2019-04-03T20:10:41.241Z,20.90
2019-04-03T20:12:46.267Z,20.90
2019-04-03T20:14:57.954Z,20.90
2019-04-03T20:16:58.560Z,20.80
2019-04-03T20:19:04.771Z,20.90
2019-04-03T20:21:09.607Z,20.80
2019-04-03T20:23:17.060Z,20.80
2019-04-03T20:25:21.873Z,20.80
2019-04-03T20:27:26.780Z,20.80
2019-04-03T20:29:31.895Z,20.80
2019-04-03T20:31:36.764Z,20.80
2019-04-03T20:33:42.342Z,20.80
2019-04-03T20:35:49.663Z,20.70
2019-04-03T20:37:56.770Z,20.70
2019-04-03T20:40:00.973Z,20.70
2019-04-03T20:42:08.101Z,20.70
2019-04-03T20:44:12.412Z,20.70
2019-04-03T20:46:18.862Z,20.70
2019-04-03T20:48:23.596Z,20.70
2019-04-03T20:50:28.779Z,20.70
2019-04-03T20:52:34.551Z,20.70
2019-04-03T20:54:39.410Z,20.70
2019-04-03T20:56:56.860Z,20.70
2019-04-03T20:58:56.194Z,20.60
2019-04-03T21:01:06.124Z,20.70
2019-04-03T21:03:03.920Z,20.70
2019-04-03T21:05:10.284Z,20.60
2019-04-03T21:07:15.107Z,20.60
2019-04-03T21:09:19.926Z,20.60
2019-04-03T21:11:24.646Z,20.60
2019-04-03T21:13:29.426Z,20.60
2019-04-03T21:15:35.861Z,20.60
2019-04-03T21:17:40.658Z,20.60
2019-04-03T21:19:45.542Z,20.60
2019-04-03T21:21:50.415Z,20.60
2019-04-03T21:23:56.507Z,20.60
2019-04-03T21:26:01.359Z,20.60
2019-04-03T21:28:06.219Z,20.60
2019-04-03T21:30:14.143Z,20.60
2019-04-03T21:32:19.062Z,20.50
2019-04-03T21:34:23.849Z,20.50
2019-04-03T21:36:28.726Z,20.50
2019-04-03T21:38:33.509Z,20.50
2019-04-03T21:40:38.368Z,20.50
2019-04-03T21:42:43.123Z,20.50
2019-04-03T21:44:47.923Z,20.50
2019-04-03T21:46:52.772Z,20.50
2019-04-03T21:48:57.557Z,20.50
2019-04-03T21:51:02.489Z,20.50
2019-04-03T21:53:07.358Z,20.50
2019-04-03T21:55:12.143Z,20.50
2019-04-03T21:57:16.975Z,20.50
2019-04-03T21:59:21.957Z,20.50
2019-04-03T22:01:26.972Z,20.50
2019-04-03T22:03:31.806Z,20.50
2019-04-03T22:05:36.899Z,20.50
2019-04-03T22:07:41.838Z,20.40
2019-04-03T22:09:46.738Z,20.40
2019-04-03T22:11:51.628Z,20.40
2019-04-03T22:13:56.519Z,20.40
2019-04-03T22:16:02.338Z,20.40
2019-04-03T22:18:07.101Z,20.40
2019-04-03T22:20:11.898Z,20.40
2019-04-03T22:22:16.858Z,20.40
2019-04-03T22:24:23.498Z,20.40
2019-04-03T22:26:28.375Z,20.30
2019-04-03T22:28:33.224Z,20.40
2019-04-03T22:30:38.102Z,20.30
2019-04-03T22:32:42.935Z,20.30
2019-04-03T22:34:47.911Z,20.30
2019-04-03T22:36:52.813Z,20.30
2019-04-03T22:38:57.541Z,20.30
2019-04-03T22:41:02.480Z,20.30
2019-04-03T22:43:07.378Z,20.30
2019-04-03T22:45:12.140Z,20.30
2019-04-03T22:47:16.998Z,20.30
2019-04-03T22:49:21.851Z,20.30
2019-04-03T22:51:26.983Z,20.30
2019-04-03T22:53:36.100Z,20.30
2019-04-03T22:55:40.938Z,20.30
2019-04-03T22:57:45.960Z,20.30
2019-04-03T22:59:50.776Z,20.30
2019-04-03T23:01:55.639Z,20.30
2019-04-03T23:04:00.440Z,20.30
2019-04-03T23:06:05.189Z,20.30
2019-04-03T23:08:10.119Z,20.30
2019-04-03T23:10:15.123Z,20.20
2019-04-03T23:12:20.042Z,20.20
2019-04-03T23:14:24.962Z,20.20
2019-04-03T23:16:30.102Z,20.20
2019-04-03T23:18:34.900Z,20.20
2019-04-03T23:20:39.726Z,20.20
2019-04-03T23:22:44.506Z,20.20
2019-04-03T23:24:49.247Z,20.20
2019-04-03T23:26:55.184Z,20.20
2019-04-03T23:29:00.291Z,20.20
2019-04-03T23:31:06.074Z,20.20
2019-04-03T23:33:11.036Z,20.20
2019-04-03T23:35:16.012Z,20.20
2019-04-03T23:37:20.773Z,20.20
2019-04-03T23:39:27.673Z,20.20
2019-04-03T23:41:32.080Z,20.20
2019-04-03T23:43:39.280Z,20.10
2019-04-03T23:45:43.824Z,20.10
2019-04-03T23:47:49.157Z,20.10
2019-04-03T23:49:54.059Z,20.10
2019-04-03T23:52:01.024Z,20.10
2019-04-03T23:54:05.804Z,20.10
2019-04-03T23:56:10.725Z,20.10
2019-04-03T23:58:15.499Z,20.10
